Airfield :
LOGIN :

Register | Disclaimer

   EN    FR    IT 

 










Legend :    VFR   Marginal VFR   IFR   Intensive IFR   Very Intensive IFR
Visi :
Ceiling :
>= 8 km
>= 3000ft
5 to 8 km
1000 to 3000 ft
1500m to 5 km
500 to 1000 ft
800 to 1500m
200 to 500 ft
< 800m
< 200 ft
Symbols :   Thunderstorms  Fog  Heavy snow  Heavy precipitations  Wind > 20 kt
SIGMETs :     Misc.  Thunderstorms  Icing  Turbulence  Mountain Waves  Volcanic Ashes






- Airport Elevation : 1036 ft
- IATA code : ERF


EDDE - Erfurt

CURRENT METAR :
  • 191720Z VRB02KT 9999 SCT026 04/01 Q1017 NOSIG

EXPIRED METARs :
  • 191650Z 27005KT 9999 FEW026 04/01 Q1017 NOSIG
  • 191620Z 27005KT 9999 FEW026 04/01 Q1017 NOSIG
  • 191550Z 28004KT 9999 SCT026 04/01 Q1017 NOSIG
  • 191520Z 30005KT 9999 FEW023 04/01 Q1016 NOSIG
  • 191450Z 29004KT 9999 FEW023 04/01 Q1016 NOSIG

TAF TAF EDDE
Valid from the 19 at 18:00 until the 20 at 18:00 UTC


191700Z 1918/2018 28004KT 9999 SCT030 BKN040
BECMG 2005/2008 3500 -RADZ BKN008
PROB30
TEMPO 2005/2011 2000 BR BKN004
BECMG 2010/2013 6000
TEMPO 2015/2018 1000 -DZRA BKN004



MET'MAP, your aeronautical weather chart ! - Copyright ORBIFLY December 2007 - Disclaimer

ORBIFLY MET'MAP TEAM :

Programming & Development : Alexandra Zaïnal
Concept & Development : Baudouin d'Aumeries
Co-Development & Prog : Marc-Olivier Méhu
Technical & hardware support : Manuel Goepfert

Contact : metmap@orbifly.com




SOURCES & CREDITS :

   NOAA